Time;durP1;ratioP1;P1;durP2;ratioP2;P2;SDS_P1;SDS_P2;PMS_P1;PMS_P2;Temp;Humidity;BMP_temperature;BMP_pressure;BME280_temperature;BME280_humidity;BME280_pressure;Samples;Min_cycle;Max_cycle;Signal;HPM_P1;HPM_P2
2022/10/09 00:01:36;;;;;;;8.77;3.43;;;6.90;99.90;;;;;;5094407;28;20628;-54
2022/10/09 00:04:04;;;;;;;9.37;3.57;;;6.80;99.90;;;;;;5094065;28;20205;-57
2022/10/09 00:06:33;;;;;;;5.40;2.80;;;6.80;99.90;;;;;;5093942;28;20223;-58
2022/10/09 00:09:01;;;;;;;8.97;3.40;;;6.80;99.90;;;;;;5093579;28;20224;-55
2022/10/09 00:11:30;;;;;;;7.67;2.83;;;6.80;99.90;;;;;;5093972;28;20742;-53
2022/10/09 00:13:57;;;;;;;7.57;2.97;;;6.90;99.90;;;;;;5093948;28;20200;-55
2022/10/09 00:16:26;;;;;;;8.90;3.20;;;6.80;99.90;;;;;;5093918;28;20204;-53
2022/10/09 00:18:53;;;;;;;9.80;3.60;;;6.80;99.90;;;;;;5093501;28;20580;-52
2022/10/09 00:21:23;;;;;;;15.40;3.47;;;6.70;99.90;;;;;;5093850;28;20212;-55
2022/10/09 00:23:51;;;;;;;5.77;2.80;;;6.60;99.90;;;;;;5093581;28;20212;-58
2022/10/09 00:26:18;;;;;;;8.00;3.53;;;6.70;99.90;;;;;;5093588;28;20212;-58
2022/10/09 00:28:45;;;;;;;5.20;3.40;;;6.70;99.90;;;;;;5093574;28;20297;-56
2022/10/09 00:31:12;;;;;;;12.60;3.20;;;6.70;99.90;;;;;;5093597;28;20667;-57
2022/10/09 00:33:40;;;;;;;10.23;2.60;;;6.60;99.90;;;;;;5093438;28;20205;-55
2022/10/09 00:36:10;;;;;;;9.70;3.53;;;6.60;99.90;;;;;;5092993;28;20591;-56
2022/10/09 00:38:36;;;;;;;7.37;3.40;;;6.60;99.90;;;;;;5093389;28;20236;-54
2022/10/09 00:41:04;;;;;;;8.40;3.57;;;6.60;99.90;;;;;;5093563;28;20250;-56
2022/10/09 00:43:41;;;;;;;6.37;2.93;;;6.60;99.90;;;;;;5093285;28;20204;-56
2022/10/09 00:46:20;;;;;;;7.90;3.13;;;6.50;99.90;;;;;;5093154;28;20204;-58
2022/10/09 00:48:55;;;;;;;5.67;3.20;;;6.50;99.90;;;;;;5092575;28;20224;-53
2022/10/09 00:51:22;;;;;;;5.17;2.43;;;6.50;99.90;;;;;;5093288;28;20667;-56
2022/10/09 00:53:48;;;;;;;7.53;3.40;;;6.50;99.90;;;;;;5093136;28;20204;-52
2022/10/09 00:56:15;;;;;;;6.87;3.03;;;6.50;99.90;;;;;;5093007;28;20234;-54
2022/10/09 00:58:42;;;;;;;21.33;3.40;;;6.50;99.90;;;;;;5092866;28;20224;-56
2022/10/09 01:01:08;;;;;;;7.83;3.43;;;6.50;99.90;;;;;;5092987;28;20261;-55
2022/10/09 01:03:35;;;;;;;6.30;3.47;;;6.50;99.90;;;;;;5092984;28;20204;-56
2022/10/09 01:06:15;;;;;;;12.00;4.10;;;6.50;99.90;;;;;;5092815;28;20205;-57
2022/10/09 01:08:48;;;;;;;15.20;3.53;;;6.50;99.90;;;;;;5092863;28;20268;-58
2022/10/09 01:11:21;;;;;;;8.80;3.50;;;6.50;99.90;;;;;;5092907;28;20208;-54
2022/10/09 01:13:55;;;;;;;13.20;3.40;;;6.50;99.90;;;;;;5092680;28;20212;-53
2022/10/09 01:16:27;;;;;;;12.80;3.67;;;6.50;99.90;;;;;;5092779;28;20204;-56
2022/10/09 01:19:01;;;;;;;16.00;3.60;;;6.50;99.90;;;;;;5092664;28;20634;-58
2022/10/09 01:21:35;;;;;;;11.63;3.50;;;6.50;99.90;;;;;;5092526;28;20693;-55
2022/10/09 01:24:17;;;;;;;10.63;3.63;;;6.50;99.90;;;;;;5092353;28;20251;-55
2022/10/09 01:27:09;;;;;;;10.43;3.57;;;6.50;99.90;;;;;;5092406;28;20212;-57
2022/10/09 01:29:40;;;;;;;9.50;3.93;;;6.50;99.90;;;;;;5083010;28;20274;-51
2022/10/09 01:32:09;;;;;;;10.77;3.80;;;6.50;99.90;;;;;;5092562;28;20208;-55
2022/10/09 01:34:38;;;;;;;11.37;3.60;;;6.50;99.90;;;;;;5092477;28;20212;-55
2022/10/09 01:37:07;;;;;;;10.93;3.50;;;6.50;99.90;;;;;;5092206;28;20671;-56
2022/10/09 01:39:35;;;;;;;9.47;4.00;;;6.40;99.90;;;;;;5092264;28;20231;-58
2022/10/09 01:42:02;;;;;;;10.13;3.90;;;6.40;99.90;;;;;;5092187;28;20204;-55
2022/10/09 01:44:31;;;;;;;16.17;4.10;;;6.40;99.90;;;;;;5092108;28;20759;-55
2022/10/09 01:46:59;;;;;;;12.17;4.10;;;6.40;99.90;;;;;;5091842;28;20261;-57
2022/10/09 01:49:41;;;;;;;12.30;3.80;;;6.50;99.90;;;;;;5091857;28;20710;-55
2022/10/09 01:52:24;;;;;;;10.77;3.53;;;6.40;99.90;;;;;;5092249;28;20689;-57
2022/10/09 01:55:02;;;;;;;12.27;3.57;;;6.40;99.90;;;;;;5092023;28;20208;-57
2022/10/09 01:57:35;;;;;;;7.17;3.60;;;6.40;99.90;;;;;;5091938;28;20207;-56
2022/10/09 02:00:08;;;;;;;10.40;3.77;;;6.40;99.90;;;;;;5091228;28;20231;-54
2022/10/09 02:02:35;;;;;;;10.57;3.67;;;6.40;99.90;;;;;;5092054;28;20207;-56
2022/10/09 02:05:02;;;;;;;16.00;4.03;;;6.40;99.90;;;;;;5092207;28;20704;-56
2022/10/09 02:07:31;;;;;;;13.00;4.13;;;6.40;99.90;;;;;;5091736;28;20234;-57
2022/10/09 02:09:59;;;;;;;7.07;3.80;;;6.40;99.90;;;;;;5091782;28;20646;-55
2022/10/09 02:12:29;;;;;;;8.43;3.90;;;6.40;99.90;;;;;;5092146;28;20257;-56
2022/10/09 02:14:56;;;;;;;12.67;3.87;;;6.40;99.90;;;;;;5092138;28;20204;-54
2022/10/09 02:17:30;;;;;;;13.00;3.87;;;6.40;99.90;;;;;;5091781;28;20227;-56
2022/10/09 02:20:03;;;;;;;18.57;3.97;;;6.40;99.90;;;;;;5091771;28;20229;-53
2022/10/09 02:22:32;;;;;;;8.67;4.20;;;6.40;99.90;;;;;;5091929;28;20682;-56
2022/10/09 02:25:01;;;;;;;9.90;3.83;;;6.50;99.90;;;;;;5092608;28;20212;-58
2022/10/09 02:27:28;;;;;;;9.90;4.07;;;6.50;99.90;;;;;;5092613;28;20200;-58
2022/10/09 02:29:55;;;;;;;11.37;3.90;;;6.50;99.90;;;;;;5092603;28;20224;-53
2022/10/09 02:32:23;;;;;;;6.37;3.67;;;6.40;99.90;;;;;;5091595;28;20211;-50
2022/10/09 02:34:50;;;;;;;9.80;3.70;;;6.40;99.90;;;;;;5091617;28;20228;-56
2022/10/09 02:37:17;;;;;;;10.60;4.10;;;6.40;99.90;;;;;;5091476;28;20674;-51
2022/10/09 02:39:43;;;;;;;9.07;3.83;;;6.40;99.90;;;;;;5091579;28;20600;-55
2022/10/09 02:42:10;;;;;;;11.03;4.13;;;6.40;99.90;;;;;;5091699;28;20268;-50
2022/10/09 02:44:37;;;;;;;9.37;3.83;;;6.40;99.90;;;;;;5091899;28;20222;-53
2022/10/09 02:47:04;;;;;;;10.47;3.73;;;6.40;99.90;;;;;;5091276;28;20735;-52
2022/10/09 02:49:32;;;;;;;9.13;4.07;;;6.40;99.90;;;;;;5090969;28;20220;-53
2022/10/09 02:51:59;;;;;;;7.97;3.67;;;6.40;99.90;;;;;;5091822;28;20303;-55
2022/10/09 02:54:25;;;;;;;14.33;4.07;;;6.40;99.90;;;;;;5091691;28;20204;-54
2022/10/09 02:56:52;;;;;;;4.17;2.90;;;6.30;99.90;;;;;;5091339;28;20204;-52
2022/10/09 02:59:19;;;;;;;8.37;3.67;;;6.40;99.90;;;;;;5091259;28;20713;-52
2022/10/09 03:01:45;;;;;;;12.77;4.03;;;6.40;99.90;;;;;;5091313;28;20732;-53
2022/10/09 03:04:12;;;;;;;8.80;3.20;;;6.30;99.90;;;;;;5091246;28;20226;-54
2022/10/09 03:06:40;;;;;;;7.57;3.93;;;6.30;99.90;;;;;;5091357;28;20204;-53
2022/10/09 03:09:06;;;;;;;18.67;4.70;;;6.30;99.90;;;;;;5091127;28;20745;-52
2022/10/09 03:11:33;;;;;;;6.97;3.60;;;6.30;99.90;;;;;;5092357;28;20671;-56
2022/10/09 03:14:00;;;;;;;16.50;4.00;;;6.20;99.90;;;;;;5095419;28;20234;-54
2022/10/09 03:16:27;;;;;;;15.47;5.00;;;6.30;99.90;;;;;;5094583;28;20682;-54
2022/10/09 03:18:54;;;;;;;14.57;4.77;;;6.20;99.90;;;;;;5094863;28;20231;-55
2022/10/09 03:21:23;;;;;;;8.67;4.37;;;6.20;99.90;;;;;;5095004;28;20224;-55
2022/10/09 03:23:52;;;;;;;10.47;5.00;;;6.20;99.90;;;;;;5094967;28;20580;-53
2022/10/09 03:26:21;;;;;;;11.97;4.97;;;6.20;99.90;;;;;;5094586;28;20219;-53
2022/10/09 03:28:49;;;;;;;18.33;5.57;;;6.20;99.90;;;;;;5094690;28;20604;-57
2022/10/09 03:31:16;;;;;;;11.13;4.87;;;6.20;99.90;;;;;;5094360;28;20234;-56
2022/10/09 03:33:43;;;;;;;11.90;5.20;;;6.20;99.90;;;;;;5094037;28;20674;-55
2022/10/09 03:36:11;;;;;;;13.70;5.77;;;6.20;99.90;;;;;;5094384;28;20245;-56
2022/10/09 03:38:38;;;;;;;11.37;5.47;;;6.20;99.90;;;;;;5094061;28;20224;-58
2022/10/09 03:41:06;;;;;;;14.90;4.73;;;6.20;99.90;;;;;;5094503;28;20277;-55
2022/10/09 03:43:34;;;;;;;14.77;4.93;;;6.20;99.90;;;;;;5094450;28;20208;-55
2022/10/09 03:46:05;;;;;;;13.87;5.73;;;6.20;99.90;;;;;;5094478;28;20212;-53
2022/10/09 03:48:32;;;;;;;13.57;5.57;;;6.10;99.90;;;;;;5094614;28;20335;-57
2022/10/09 03:50:59;;;;;;;10.77;6.13;;;6.10;99.90;;;;;;5094797;28;20624;-57
2022/10/09 03:53:26;;;;;;;17.47;7.00;;;6.10;99.90;;;;;;5094371;28;20262;-57
2022/10/09 03:55:53;;;;;;;15.00;6.90;;;6.10;99.90;;;;;;5094180;28;20564;-57
2022/10/09 03:58:21;;;;;;;23.30;10.23;;;6.10;99.90;;;;;;5094461;28;20228;-58
2022/10/09 04:00:50;;;;;;;19.63;6.67;;;6.10;99.90;;;;;;5094469;28;20270;-53
2022/10/09 04:03:16;;;;;;;13.10;6.00;;;6.10;99.90;;;;;;5094377;28;20200;-57
2022/10/09 04:05:43;;;;;;;11.97;5.77;;;6.10;99.90;;;;;;5094181;28;20215;-57
2022/10/09 04:08:10;;;;;;;13.63;6.47;;;6.10;99.90;;;;;;5094252;28;20236;-54
2022/10/09 04:10:37;;;;;;;11.60;6.23;;;6.10;99.90;;;;;;5093851;28;20299;-57
2022/10/09 04:13:04;;;;;;;16.27;6.30;;;6.10;99.90;;;;;;5093866;28;20806;-54
2022/10/09 04:15:32;;;;;;;17.77;6.13;;;6.10;99.90;;;;;;5094009;28;20200;-55
2022/10/09 04:17:58;;;;;;;14.90;6.33;;;6.10;99.90;;;;;;5093776;28;20235;-58
2022/10/09 04:20:25;;;;;;;15.03;6.93;;;6.10;99.90;;;;;;5093793;28;20223;-56
2022/10/09 04:22:51;;;;;;;16.07;6.00;;;6.10;99.90;;;;;;5092820;28;20216;-56
2022/10/09 04:25:18;;;;;;;19.53;6.03;;;6.10;99.90;;;;;;5093887;28;20216;-55
2022/10/09 04:27:45;;;;;;;14.63;6.20;;;6.00;99.90;;;;;;5093505;28;20284;-57
2022/10/09 04:30:12;;;;;;;15.80;6.00;;;6.00;99.90;;;;;;5093826;28;20278;-57
2022/10/09 04:32:40;;;;;;;16.80;6.30;;;6.00;99.90;;;;;;5093477;28;20204;-57
2022/10/09 04:35:08;;;;;;;17.13;6.87;;;6.00;99.90;;;;;;5093507;28;20215;-58
2022/10/09 04:37:35;;;;;;;22.23;6.50;;;6.10;99.90;;;;;;5093111;28;20677;-58
2022/10/09 04:40:02;;;;;;;16.60;6.17;;;6.10;99.90;;;;;;5093408;28;20250;-58
2022/10/09 04:42:30;;;;;;;14.73;6.10;;;6.10;99.90;;;;;;5093468;28;20204;-58
2022/10/09 04:44:56;;;;;;;15.17;6.43;;;6.10;99.90;;;;;;5093441;28;20666;-57
2022/10/09 04:47:23;;;;;;;10.03;5.83;;;6.00;99.90;;;;;;5093028;28;20208;-58
2022/10/09 04:49:51;;;;;;;26.77;7.33;;;6.10;99.90;;;;;;5093029;28;20220;-58
2022/10/09 04:52:18;;;;;;;25.80;6.37;;;6.10;99.90;;;;;;5093074;28;20642;-58
2022/10/09 04:54:44;;;;;;;18.40;6.57;;;6.10;99.90;;;;;;5093433;28;20200;-58
2022/10/09 04:57:11;;;;;;;18.37;6.97;;;6.10;99.90;;;;;;5093219;28;20249;-58
2022/10/09 04:59:37;;;;;;;27.73;7.00;;;6.00;99.90;;;;;;5093423;28;20269;-58
2022/10/09 05:02:04;;;;;;;17.13;6.87;;;6.00;99.90;;;;;;5093222;28;20208;-58
2022/10/09 05:04:31;;;;;;;14.23;7.10;;;6.00;99.90;;;;;;5092932;28;20200;-57
2022/10/09 05:06:59;;;;;;;17.57;7.07;;;6.00;99.90;;;;;;5092803;28;20208;-58
2022/10/09 05:09:25;;;;;;;15.80;7.07;;;6.00;99.90;;;;;;5093235;28;20297;-57
2022/10/09 05:11:52;;;;;;;12.00;6.00;;;6.00;99.90;;;;;;5092814;28;20197;-58
2022/10/09 05:14:19;;;;;;;16.87;6.87;;;6.00;99.90;;;;;;5092479;28;20208;-58
2022/10/09 05:16:45;;;;;;;12.10;5.77;;;6.00;99.90;;;;;;5092432;28;20811;-58
2022/10/09 05:19:12;;;;;;;12.60;6.37;;;6.00;99.90;;;;;;5092589;28;20234;-58
2022/10/09 05:21:39;;;;;;;14.67;5.70;;;6.00;99.90;;;;;;5092667;28;20227;-57
2022/10/09 05:24:07;;;;;;;17.83;5.93;;;6.00;99.90;;;;;;5092727;28;20297;-58
2022/10/09 05:26:34;;;;;;;18.70;5.27;;;6.00;99.90;;;;;;5092228;28;20581;-57
2022/10/09 05:29:00;;;;;;;15.33;6.07;;;6.00;99.90;;;;;;5092321;28;20726;-56
2022/10/09 05:31:29;;;;;;;19.07;6.30;;;6.00;99.90;;;;;;5092393;28;20204;-56
2022/10/09 05:33:58;;;;;;;19.83;6.33;;;6.00;99.90;;;;;;5092504;28;20211;-53
2022/10/09 05:36:25;;;;;;;18.20;5.77;;;6.00;99.90;;;;;;5092082;28;20204;-56
2022/10/09 05:38:51;;;;;;;13.07;5.70;;;6.00;99.90;;;;;;5092551;28;20228;-58
2022/10/09 05:41:19;;;;;;;12.93;5.83;;;6.00;99.90;;;;;;5092680;28;20228;-56
2022/10/09 05:43:48;;;;;;;18.83;5.97;;;6.00;99.90;;;;;;5092940;28;20253;-58
2022/10/09 05:46:16;;;;;;;15.37;5.30;;;6.00;99.90;;;;;;5092113;28;20269;-58
2022/10/09 05:48:45;;;;;;;22.40;5.90;;;6.00;99.90;;;;;;5092064;28;20224;-58
2022/10/09 05:51:13;;;;;;;17.60;5.30;;;6.10;99.90;;;;;;5092378;28;20204;-58
2022/10/09 05:53:41;;;;;;;20.23;5.83;;;6.10;99.90;;;;;;5092095;28;20557;-58
2022/10/09 05:56:16;;;;;;;17.63;6.90;;;6.10;99.90;;;;;;5091999;28;20679;-58
2022/10/09 05:58:48;;;;;;;14.97;5.37;;;6.10;99.90;;;;;;5092138;28;20297;-58
2022/10/09 06:01:15;;;;;;;14.27;5.33;;;6.10;99.90;;;;;;5091683;28;20220;-58
2022/10/09 06:03:42;;;;;;;14.77;5.80;;;6.00;99.90;;;;;;5091941;28;20215;-58
2022/10/09 06:06:09;;;;;;;15.43;5.70;;;6.10;99.90;;;;;;5091951;28;20211;-56
2022/10/09 06:08:37;;;;;;;12.33;5.33;;;6.10;99.90;;;;;;5092109;28;20277;-58
2022/10/09 06:11:12;;;;;;;18.07;5.70;;;6.10;99.90;;;;;;5091992;28;20705;-58
2022/10/09 06:13:39;;;;;;;13.27;5.60;;;6.10;99.90;;;;;;5092080;28;20211;-55
2022/10/09 06:16:10;;;;;;;12.10;4.97;;;6.20;99.90;;;;;;5092057;28;20211;-58
2022/10/09 06:18:36;;;;;;;15.00;5.70;;;6.20;99.90;;;;;;5091947;28;20227;-58
2022/10/09 06:21:03;;;;;;;20.87;6.30;;;6.30;99.90;;;;;;5091848;28;20228;-58
2022/10/09 06:23:30;;;;;;;14.00;6.10;;;6.30;99.90;;;;;;5091902;28;20200;-56
2022/10/09 06:25:59;;;;;;;23.07;5.90;;;6.30;99.90;;;;;;5091674;28;20302;-58
2022/10/09 06:28:25;;;;;;;14.73;5.50;;;6.40;99.90;;;;;;5091468;28;20858;-58
2022/10/09 06:30:52;;;;;;;15.83;5.87;;;6.40;99.90;;;;;;5092700;28;20204;-57
2022/10/09 06:33:20;;;;;;;12.70;5.47;;;6.50;99.90;;;;;;5091810;28;20264;-59
2022/10/09 06:35:47;;;;;;;14.87;5.83;;;6.50;99.90;;;;;;5091848;28;20211;-59
2022/10/09 06:38:14;;;;;;;18.07;5.37;;;6.60;99.90;;;;;;5091549;28;20225;-59
2022/10/09 06:40:41;;;;;;;12.87;5.10;;;6.60;99.90;;;;;;5091268;28;20216;-59
2022/10/09 06:43:07;;;;;;;16.60;6.27;;;6.70;99.90;;;;;;5092068;28;20254;-58
2022/10/09 06:45:37;;;;;;;11.07;5.10;;;6.80;99.90;;;;;;5091835;28;20204;-56
2022/10/09 06:48:04;;;;;;;20.03;5.10;;;6.80;99.90;;;;;;5094966;28;20224;-58
2022/10/09 06:50:35;;;;;;;18.07;5.23;;;6.90;99.90;;;;;;5095679;28;20197;-58
2022/10/09 06:53:02;;;;;;;22.17;5.73;;;7.00;99.90;;;;;;5095477;28;20643;-58
2022/10/09 06:55:28;;;;;;;14.60;5.37;;;7.00;99.90;;;;;;5095379;28;20212;-55
2022/10/09 06:57:55;;;;;;;18.07;5.73;;;7.10;99.90;;;;;;5095337;28;20224;-57
2022/10/09 07:00:22;;;;;;;15.93;5.47;;;7.10;99.90;;;;;;5095516;28;20208;-59
2022/10/09 07:02:49;;;;;;;15.43;5.70;;;7.20;99.90;;;;;;5095385;28;20676;-59
2022/10/09 07:05:16;;;;;;;12.77;5.20;;;7.20;99.90;;;;;;5095399;28;20295;-56
2022/10/09 07:07:44;;;;;;;18.63;5.57;;;7.30;99.90;;;;;;5094841;28;20674;-58
2022/10/09 07:10:11;;;;;;;15.33;5.43;;;7.40;99.90;;;;;;5095065;28;20238;-57
2022/10/09 07:12:38;;;;;;;14.80;5.13;;;7.50;99.90;;;;;;5095095;28;20628;-58
2022/10/09 07:15:06;;;;;;;13.40;5.33;;;7.60;99.90;;;;;;5094859;28;20208;-55
2022/10/09 07:17:33;;;;;;;8.97;4.50;;;7.70;99.90;;;;;;5095013;28;20586;-54
2022/10/09 07:20:00;;;;;;;6.93;4.07;;;7.80;99.90;;;;;;5095283;28;20208;-56
2022/10/09 07:22:26;;;;;;;17.07;4.67;;;7.80;99.90;;;;;;5095129;28;20228;-56
2022/10/09 07:24:54;;;;;;;12.10;4.27;;;7.90;99.90;;;;;;5094641;28;20740;-53
2022/10/09 07:27:21;;;;;;;15.83;3.30;;;8.00;99.90;;;;;;5094572;28;20262;-59
2022/10/09 07:29:48;;;;;;;10.87;3.70;;;8.10;99.90;;;;;;5094779;28;20229;-55
2022/10/09 07:32:14;;;;;;;7.87;3.20;;;8.10;99.90;;;;;;5092046;28;20263;-57
2022/10/09 07:34:42;;;;;;;6.60;2.90;;;8.20;99.90;;;;;;5094665;28;20216;-57
2022/10/09 07:37:08;;;;;;;13.93;2.77;;;8.30;99.90;;;;;;5094553;28;20266;-56
2022/10/09 07:39:35;;;;;;;10.40;2.80;;;8.40;99.90;;;;;;5094689;28;20547;-55
2022/10/09 07:42:04;;;;;;;6.77;2.67;;;8.50;99.90;;;;;;5094501;28;20232;-57
2022/10/09 07:44:30;;;;;;;4.20;2.50;;;8.60;99.90;;;;;;5094498;28;20552;-55
2022/10/09 07:46:57;;;;;;;2.83;1.87;;;8.70;99.90;;;;;;5094245;28;20241;-56
2022/10/09 07:49:24;;;;;;;5.13;2.03;;;8.80;99.90;;;;;;5094161;28;20301;-58
2022/10/09 07:51:51;;;;;;;7.70;2.40;;;8.90;99.90;;;;;;5094482;28;20205;-55
2022/10/09 07:54:17;;;;;;;4.93;1.97;;;9.00;99.90;;;;;;5094297;28;20261;-58
2022/10/09 07:56:44;;;;;;;7.53;1.90;;;9.10;99.90;;;;;;5094481;28;20210;-58
2022/10/09 07:59:14;;;;;;;6.27;2.20;;;9.20;99.90;;;;;;5094055;28;20223;-56
2022/10/09 08:01:41;;;;;;;3.23;1.40;;;9.30;99.90;;;;;;5094377;28;20280;-57
2022/10/09 08:04:09;;;;;;;7.40;1.90;;;9.50;99.90;;;;;;5094043;28;20237;-58
2022/10/09 08:06:36;;;;;;;7.00;2.43;;;9.60;99.90;;;;;;5094237;28;20204;-57
2022/10/09 08:09:05;;;;;;;7.73;1.87;;;9.70;99.90;;;;;;5093737;28;20713;-57
2022/10/09 08:11:31;;;;;;;7.27;2.67;;;9.80;99.90;;;;;;5094243;28;20234;-58
2022/10/09 08:13:58;;;;;;;11.17;2.00;;;9.90;99.90;;;;;;5094579;28;20253;-58
2022/10/09 08:16:28;;;;;;;4.70;1.77;;;10.00;99.90;;;;;;5095014;28;20751;-58
2022/10/09 08:18:57;;;;;;;3.67;1.80;;;10.10;99.90;;;;;;5094634;28;20239;-58
2022/10/09 08:21:24;;;;;;;5.97;1.87;;;10.20;99.90;;;;;;5094750;28;20231;-58
2022/10/09 08:23:54;;;;;;;6.03;1.93;;;10.30;99.90;;;;;;5094462;28;20212;-57
2022/10/09 08:26:23;;;;;;;6.60;2.17;;;10.50;99.90;;;;;;5093737;28;20208;-58
2022/10/09 08:28:50;;;;;;;5.43;1.80;;;10.50;99.90;;;;;;5080614;28;20316;-58
2022/10/09 08:31:17;;;;;;;6.20;2.30;;;10.60;99.90;;;;;;5093139;28;20332;-57
2022/10/09 08:33:45;;;;;;;3.97;1.83;;;10.70;99.90;;;;;;5093261;28;20208;-58
2022/10/09 08:36:15;;;;;;;8.13;2.43;;;10.80;99.90;;;;;;5093245;28;20851;-61
2022/10/09 08:38:42;;;;;;;4.60;1.67;;;10.90;99.90;;;;;;5092408;28;20633;-63
2022/10/09 08:41:13;;;;;;;6.73;1.73;;;11.10;99.90;;;;;;5093052;28;20224;-59
2022/10/09 08:43:45;;;;;;;4.23;1.57;;;11.40;99.90;;;;;;5091196;28;20204;-61
2022/10/09 08:46:17;;;;;;;5.93;1.63;;;11.40;99.90;;;;;;5091923;28;20200;-65
2022/10/09 08:48:47;;;;;;;4.40;1.60;;;11.40;99.90;;;;;;5092674;28;20228;-60
2022/10/09 08:51:19;;;;;;;4.97;1.63;;;11.50;99.90;;;;;;5093125;28;20200;-59
2022/10/09 08:53:51;;;;;;;4.70;1.60;;;11.50;97.40;;;;;;5092345;28;20212;-56
2022/10/09 08:56:18;;;;;;;4.90;1.83;;;11.50;96.70;;;;;;5093973;28;20208;-58
2022/10/09 08:58:45;;;;;;;7.07;1.87;;;11.60;98.60;;;;;;5095052;28;20232;-58
2022/10/09 09:01:20;;;;;;;7.40;1.80;;;11.70;97.30;;;;;;5095460;28;20232;-60
2022/10/09 09:04:17;;;;;;;6.27;1.70;;;11.70;96.70;;;;;;5093337;28;20211;-63
2022/10/09 09:06:52;;;;;;;5.67;2.00;;;11.80;98.80;;;;;;5092190;28;20219;-62
2022/10/09 09:09:26;;;;;;;6.37;1.90;;;11.90;97.10;;;;;;5092379;28;20219;-58
2022/10/09 09:11:57;;;;;;;3.33;1.63;;;12.00;99.90;;;;;;5092557;28;20208;-58
2022/10/09 09:14:36;;;;;;;6.33;1.77;;;12.20;92.00;;;;;;5092607;28;20260;-58
2022/10/09 09:17:12;;;;;;;7.63;1.90;;;12.30;92.40;;;;;;5091879;28;20544;-58
2022/10/09 09:19:50;;;;;;;3.67;1.90;;;12.40;95.70;;;;;;5092538;28;20224;-58
2022/10/09 09:22:17;;;;;;;9.00;2.17;;;12.50;84.40;;;;;;5092283;28;20228;-59
2022/10/09 09:24:48;;;;;;;3.80;1.60;;;12.70;78.10;;;;;;5092233;28;20243;-56
2022/10/09 09:27:18;;;;;;;4.00;1.57;;;12.70;81.30;;;;;;5091760;28;20211;-59
2022/10/09 09:29:50;;;;;;;8.67;2.07;;;12.90;78.30;;;;;;5092496;28;20319;-59
2022/10/09 09:32:21;;;;;;;9.57;2.13;;;12.90;64.80;;;;;;5092258;28;20204;-58
2022/10/09 09:34:49;;;;;;;5.57;1.63;;;13.00;66.60;;;;;;5092386;28;20208;-59
2022/10/09 09:37:16;;;;;;;5.53;1.80;;;13.10;51.60;;;;;;5091711;28;20204;-59
2022/10/09 09:39:44;;;;;;;5.43;2.00;;;13.20;66.70;;;;;;5091955;28;20238;-57
2022/10/09 09:42:16;;;;;;;5.97;2.10;;;13.30;47.40;;;;;;5091946;28;20311;-60
2022/10/09 09:44:49;;;;;;;5.00;1.60;;;13.50;34.50;;;;;;5092246;28;20556;-60
2022/10/09 09:47:21;;;;;;;3.87;1.90;;;13.50;26.00;;;;;;5091728;28;20200;-60
2022/10/09 09:49:57;;;;;;;7.50;2.60;;;13.70;47.30;;;;;;5091914;28;20229;-60
2022/10/09 09:52:27;;;;;;;7.70;2.20;;;13.80;33.10;;;;;;5091664;28;20204;-61
2022/10/09 09:54:56;;;;;;;6.00;2.30;;;14.00;24.80;;;;;;5091830;28;20219;-60
2022/10/09 09:57:30;;;;;;;7.80;2.00;;;14.00;25.30;;;;;;5091548;28;20577;-60
2022/10/09 10:00:08;;;;;;;4.20;2.10;;;14.20;1.00;;;;;;5091800;28;20220;-61
2022/10/09 10:02:34;;;;;;;9.33;1.97;;;14.30;1.00;;;;;;5091193;28;20219;-62
2022/10/09 10:05:16;;;;;;;3.53;1.80;;;14.50;1.00;;;;;;5091589;28;20211;-61
2022/10/09 10:07:43;;;;;;;3.90;1.80;;;14.60;99.90;;;;;;5091365;28;20219;-61
2022/10/09 10:10:16;;;;;;;5.17;1.33;;;14.60;99.90;;;;;;5091641;28;20212;-60
2022/10/09 10:12:45;;;;;;;5.17;1.73;;;14.70;99.90;;;;;;5091471;28;20204;-61
2022/10/09 10:15:20;;;;;;;10.10;1.70;;;14.80;99.90;;;;;;5091367;28;20200;-59
2022/10/09 10:17:49;;;;;;;3.43;1.43;;;14.90;18.40;;;;;;5089425;28;20210;-58
2022/10/09 10:20:18;;;;;;;6.07;1.70;;;14.90;1.00;;;;;;5091493;28;20204;-60
2022/10/09 10:22:50;;;;;;;3.93;1.80;;;15.00;99.90;;;;;;5094755;28;20233;-59
2022/10/09 10:25:20;;;;;;;3.03;1.27;;;15.10;1.00;;;;;;5095759;28;20306;-60
2022/10/09 10:27:50;;;;;;;2.87;1.27;;;15.10;47.40;;;;;;5095151;28;20215;-61
2022/10/09 10:30:18;;;;;;;4.00;1.40;;;15.20;99.90;;;;;;5095974;28;20227;-61
2022/10/09 10:32:52;;;;;;;2.63;1.47;;;15.20;99.90;;;;;;5095527;28;20200;-61
2022/10/09 10:35:26;;;;;;;3.80;1.40;;;15.30;1.00;;;;;;5095591;28;20204;-60
2022/10/09 10:37:58;;;;;;;4.20;1.67;;;15.40;90.30;;;;;;5094903;28;20203;-61
2022/10/09 10:40:30;;;;;;;3.50;1.60;;;15.50;99.90;;;;;;5094714;28;20933;-62
2022/10/09 10:43:05;;;;;;;5.33;1.60;;;15.50;99.90;;;;;;5093146;28;20220;-58
2022/10/09 10:45:35;;;;;;;4.73;1.63;;;15.50;1.00;;;;;;5095137;28;20264;-59
2022/10/09 10:48:05;;;;;;;5.40;1.83;;;15.70;99.90;;;;;;5095257;28;20228;-61
2022/10/09 10:50:39;;;;;;;2.80;1.20;;;15.80;99.90;;;;;;5096031;28;20204;-60
2022/10/09 10:53:17;;;;;;;2.77;1.40;;;15.80;99.90;;;;;;5096155;28;20203;-64
2022/10/09 10:55:53;;;;;;;3.13;1.57;;;15.90;96.70;;;;;;5095152;28;20640;-64
2022/10/09 10:58:25;;;;;;;3.33;1.20;;;15.70;1.00;;;;;;5094963;28;20858;-62
2022/10/09 11:01:08;;;;;;;2.70;1.10;;;15.80;99.90;;;;;;5095087;28;20205;-62
2022/10/09 11:03:53;;;;;;;2.43;0.97;;;15.80;1.00;;;;;;5095082;28;20231;-62
2022/10/09 11:06:27;;;;;;;3.83;1.10;;;15.80;99.90;;;;;;5095135;28;20578;-59
2022/10/09 11:09:04;;;;;;;4.83;1.47;;;15.80;99.90;;;;;;5095390;28;20223;-59
2022/10/09 11:11:37;;;;;;;3.87;1.30;;;15.90;99.90;;;;;;5094788;28;20299;-59
2022/10/09 11:14:13;;;;;;;3.90;1.23;;;15.90;99.90;;;;;;5094864;28;20216;-59
2022/10/09 11:16:51;;;;;;;4.87;1.23;;;16.00;7.70;;;;;;5094700;28;20250;-59
2022/10/09 11:19:43;;;;;;;4.00;1.50;;;16.00;57.60;;;;;;5094647;28;20235;-59
2022/10/09 11:22:23;;;;;;;3.23;1.30;;;16.10;31.40;;;;;;5094506;28;20224;-59
2022/10/09 11:25:02;;;;;;;4.33;1.30;;;16.20;7.80;;;;;;5094859;28;20200;-58
2022/10/09 11:27:37;;;;;;;2.80;1.40;;;16.20;50.00;;;;;;5094062;28;20203;-58
2022/10/09 11:30:09;;;;;;;3.70;1.40;;;16.10;8.10;;;;;;5094505;28;20285;-56
2022/10/09 11:32:40;;;;;;;2.60;1.10;;;16.10;1.00;;;;;;5093794;28;20650;-60
2022/10/09 11:35:13;;;;;;;7.33;1.13;;;16.20;1.00;;;;;;5094242;28;20630;-60
2022/10/09 11:37:47;;;;;;;5.83;1.20;;;16.20;1.00;;;;;;5093793;28;20914;-60
2022/10/09 11:40:16;;;;;;;2.30;1.27;;;16.40;1.00;;;;;;5094353;28;20227;-58
2022/10/09 11:42:45;;;;;;;2.13;1.13;;;16.50;1.00;;;;;;5093962;28;20227;-58
2022/10/09 11:45:26;;;;;;;4.83;1.00;;;16.60;1.00;;;;;;5094213;28;20671;-58
2022/10/09 11:48:04;;;;;;;4.47;1.40;;;16.70;1.00;;;;;;5093678;28;20215;-58
2022/10/09 11:50:42;;;;;;;4.10;1.43;;;16.80;1.00;;;;;;5093990;28;20208;-57
2022/10/09 11:53:14;;;;;;;4.37;1.23;;;16.80;1.00;;;;;;5094182;28;20228;-58
2022/10/09 11:55:41;;;;;;;6.00;1.53;;;16.80;1.00;;;;;;5094042;28;20209;-57
2022/10/09 11:58:13;;;;;;;2.37;1.40;;;16.80;99.90;;;;;;5093842;28;20547;-60
2022/10/09 12:00:41;;;;;;;3.43;1.30;;;16.90;99.90;;;;;;5093806;28;20259;-59
2022/10/09 12:03:24;;;;;;;4.57;1.30;;;16.90;99.90;;;;;;5093742;28;20216;-59
2022/10/09 12:05:51;;;;;;;4.50;1.20;;;16.80;99.90;;;;;;5093652;28;20705;-60
2022/10/09 12:08:27;;;;;;;2.33;0.90;;;16.90;99.90;;;;;;5093788;28;20235;-60
2022/10/09 12:10:56;;;;;;;5.77;1.23;;;17.00;1.00;;;;;;5093655;28;20267;-61
2022/10/09 12:13:31;;;;;;;3.67;1.10;;;16.80;1.00;;;;;;5093941;28;20208;-61
2022/10/09 12:15:59;;;;;;;3.33;1.03;;;16.90;99.90;;;;;;5093338;28;20212;-61
2022/10/09 12:18:29;;;;;;;4.47;1.10;;;16.90;99.90;;;;;;5093760;28;20224;-59
2022/10/09 12:20:59;;;;;;;2.63;0.90;;;17.00;99.90;;;;;;5094725;28;20208;-60
2022/10/09 12:23:31;;;;;;;3.13;1.13;;;17.00;99.90;;;;;;5094759;28;20282;-59
2022/10/09 12:25:59;;;;;;;3.80;1.00;;;17.00;99.90;;;;;;5092934;28;20238;-59
2022/10/09 12:28:30;;;;;;;3.90;1.00;;;17.00;99.90;;;;;;5093082;28;20311;-58
2022/10/09 12:30:59;;;;;;;2.83;0.90;;;17.10;99.90;;;;;;5093087;28;20212;-59
2022/10/09 12:33:33;;;;;;;6.67;2.20;;;17.20;99.90;;;;;;5093282;28;20200;-59
2022/10/09 12:36:04;;;;;;;4.47;1.23;;;17.30;99.90;;;;;;5093046;28;20204;-59
2022/10/09 12:38:33;;;;;;;3.07;1.10;;;17.40;99.90;;;;;;5092823;28;20224;-59
2022/10/09 12:41:02;;;;;;;2.30;1.00;;;17.30;99.90;;;;;;5093208;28;20212;-59
2022/10/09 12:43:31;;;;;;;4.63;1.00;;;17.00;99.90;;;;;;5092449;28;20250;-60
2022/10/09 12:45:58;;;;;;;2.93;1.10;;;17.00;99.90;;;;;;5092492;28;20296;-60
2022/10/09 12:48:26;;;;;;;1.87;0.87;;;17.10;99.90;;;;;;5092043;28;20228;-61
2022/10/09 12:50:53;;;;;;;3.97;1.20;;;17.30;99.90;;;;;;5092899;28;20416;-60
2022/10/09 12:53:22;;;;;;;3.57;1.20;;;17.20;99.90;;;;;;5093232;28;20204;-60
2022/10/09 12:55:51;;;;;;;4.40;1.23;;;17.20;99.90;;;;;;5092602;28;20204;-61
2022/10/09 12:58:21;;;;;;;2.63;1.10;;;17.30;99.90;;;;;;5092820;28;20234;-59
2022/10/09 13:00:50;;;;;;;2.57;1.03;;;17.40;99.90;;;;;;5092567;28;20674;-60
2022/10/09 13:03:25;;;;;;;4.70;1.30;;;17.40;99.90;;;;;;5092850;28;20278;-60